East Peoria, IL

3:41 AM CDT on September 16, 2014 (GMT -0500)
Briarwood Pointe | Change Station
CLOSE
Current Station
Personal Weather Station
Location: Metamora, IL
Elevation: 794 ft
Nearby Weather Stations

Elev 794 ft 40.75 °N, 89.44 °W | Updated 11 minutes ago

Partly Cloudy
Partly Cloudy
47.1 °F
Feels Like 47 °F
N
1.7
Wind Variable Wind from NW

Today
High -- | Low -- °F
--% Chance of Precip.
Yesterday
High -- | Low -- °F
Precip. -- in
6:39 AM 7:05 PM
Waning Gibbous, 47% visible
Pressure 30.22 in
Visibility 10.0 miles
Clouds Clear
Windchill 47 °F
Dew Point 47 °F
Humidity 98%
Rainfall 0.00 in
Snow Depth Not available.
UV 0 out of 12
Pollen 3.80 out of 12
Ozone Good
PM2.5 Good
Flu Activity Not available.
METAR KPIA 160754Z 35003KT 10SM CLR 11/08 A3022 RMK AO2 SLP233 T01060083

More Conditions Fewer Conditions

Pressure 30.22 in
Visibility 10.0 miles
Clouds Clear
Windchill 47 °F
Dew Point 47 °F
Humidity 98%
Rainfall 0.00 in
Snow Depth Not available.
UV 0 out of 12
Pollen 3.80 out of 12
Ozone Good
PM2.5 Good
Flu Activity Not available.
METAR KPIA 160754Z 35003KT 10SM CLR 11/08 A3022 RMK AO2 SLP233 T01060083

More Conditions Fewer Conditions

10-Day Weather Forecast

Almanac

Astronomy

Sep. 16, 2014 Rise Set
Actual Time 6:39 AM CDT 7:05 PM CDT
Civil Twilight 6:12 AM CDT 7:32 PM CDT
Nautical Twilight 5:40 AM CDT 8:05 PM CDT
Astronomical Twilight 5:06 AM CDT 8:38 PM CDT
Moon No Moon Rise 2:30 PM CDT
Length of Visible Light 13h 20m
Length of Day
12h 25m
Tomorrow will be 2m 40s shorter.
Waning Gibbous, 47% of the Moon is Illuminated
Today
Waning Gibbous
Sep 24
New
Oct 1
First Quarter
Oct 8
Full
Oct 15
Last Quarter

Today's Extremes

State Highs State Lows

Community

WunderPhotos

Upload Photos

1,753,712 photos uploaded!

WunderBlogs® & News

Nearby

Air Quality

  Air Quality AQ Index Pollutant
Yesterday Good
PM2.5
Yesterday Good
OZONE
Current Good
PM2.5
Current Good
OZONE
Tuesday Good
PM2.5
Wednesday Good
PM2.5
Thursday Good
PM2.5
Friday Good
PM2.5

Snow Depth

Station Depth Elevation
No new snow has been reported.

Earthquake Activity

City Distance Mag. Time & Date
No recent earthquake activity has been reported nearby.
Minimum magnitude displayed is 2.5.

Coastal Water Temperatures

Place Temperature
No Stations Reporting

Nearby Weather Stations